Date,TemperatureHighF,TemperatureAvgF,TemperatureLowF,DewpointHighF,DewpointAvgF,DewpointLowF,HumidityHigh,HumidityAvg,HumidityLow,PressureMaxIn,PressureMinIn,WindSpeedMaxMPH,WindSpeedAvgMPH,GustSpeedMaxMPH,PrecipitationSumIn
2013-1-1,46.7,43.3,38.3,42.5,35.9,26.8,99,76,51,30.06,29.89,12,1,15,0.24
2013-1-2,42.6,38.7,36.0,42.4,36.1,34.1,100,91,78,30.20,29.95,10,1,11,0.14
2013-1-3,39.2,33.9,28.1,34.9,27.4,23.6,93,77,65,30.25,30.16,9,0,12,0.00
2013-1-4,46.0,34.9,24.7,24.7,21.9,19.8,83,61,37,30.28,30.16,19,3,19,0.00
2013-1-5,50.1,38.8,26.9,28.6,22.2,18.9,76,53,31,30.38,30.21,11,1,13,0.00
2013-1-6,52.2,43.0,35.8,36.2,31.4,27.3,89,65,45,30.22,30.04,15,2,15,0.00
2013-1-7,48.9,40.2,31.0,32.3,28.9,26.1,84,65,46,30.43,30.16,12,1,12,0.00
2013-1-8,48.9,38.5,28.4,35.8,32.1,25.8,95,79,59,30.47,30.37,9,1,12,0.00
2013-1-9,68.1,50.7,33.1,52.1,43.9,30.8,95,79,55,30.41,30.30,16,3,18,0.00
2013-1-10,59.5,49.2,40.5,48.5,38.7,30.3,99,71,38,30.55,30.39,10,1,11,0.00
2013-1-11,44.5,41.1,37.8,43.4,37.5,28.6,100,88,55,30.46,30.12,11,1,13,0.15
2013-1-12,63.1,51.4,43.3,57.1,50.3,43.2,100,96,81,30.17,30.10,12,1,14,0.00
2013-1-13,72.7,61.4,51.0,62.3,57.6,50.9,100,89,66,30.11,30.00,17,3,20,0.00
2013-1-14,63.9,57.6,42.5,61.9,56.2,41.7,100,95,86,30.24,30.01,20,5,22,0.88
2013-1-15,42.5,39.8,38.2,41.7,39.6,38.2,100,99,97,30.31,30.11,15,3,18,1.72
2013-1-16,44.6,40.4,36.6,44.5,40.3,36.6,100,99,97,30.11,29.92,13,2,16,0.39
2013-1-17,46.5,41.8,32.2,46.4,41.6,31.9,100,100,98,30.11,29.98,25,2,27,0.85
2013-1-18,34.9,32.6,29.8,30.2,26.6,24.8,91,79,72,30.52,30.47,6,0,6,0.74
2013-1-19,49.5,39.1,28.4,31.3,27.2,24.3,87,64,43,30.48,30.08,17,5,19,0.03
2013-1-20,57.8,45.3,36.3,35.8,28.8,24.2,70,54,33,30.09,29.94,26,5,28,0.00
2013-1-21,54.2,40.8,27.2,31.4,22.3,4.9,90,52,26,30.08,29.80,20,3,24,0.00
2013-1-22,36.5,26.5,18.1,9.5,0.2,-4.6,53,32,23,30.29,29.94,23,3,23,0.00
2013-1-23,34.0,25.0,12.6,13.6,4.1,-3.4,74,43,22,30.36,30.06,21,2,21,0.00
2013-1-24,31.2,25.2,15.7,19.8,9.0,-2.6,85,53,25,30.54,29.99,24,4,27,0.00
2013-1-25,24.1,19.2,12.9,20.5,11.6,2.9,93,73,42,30.53,30.09,14,2,15,0.00
2013-1-26,39.1,27.4,20.0,26.7,22.8,18.6,95,84,54,30.43,30.08,7,0,7,0.02
2013-1-27,37.3,28.9,19.1,26.1,22.9,17.7,96,79,57,30.62,30.43,10,1,11,0.00
2013-1-28,55.7,41.0,31.6,44.6,35.6,25.7,97,82,58,30.49,30.14,21,5,21,0.22
2013-1-29,72.8,58.2,45.1,56.1,48.2,42.5,93,72,43,30.16,30.00,18,5,20,0.00
2013-1-30,70.1,66.3,61.0,63.6,60.6,55.8,95,82,73,30.00,29.29,31,11,34,0.57
2013-1-31,63.4,40.1,29.4,61.0,20.3,14.7,92,46,30,29.94,29.30,34,8,34,0.32
2013-2-1,37.5,29.8,21.0,28.5,8.2,-1.0,78,41,25,30.39,29.80,28,5,30,0.00
2013-2-2,36.5,27.1,16.1,20.8,11.4,2.1,73,52,31,30.39,30.00,20,2,21,0.00
2013-2-3,43.5,35.5,27.3,26.5,21.0,16.2,73,56,42,30.00,29.84,19,3,26,0.00
2013-2-4,39.5,32.9,24.1,24.8,17.8,14.1,71,54,42,30.13,29.94,14,2,16,0.00
2013-2-5,56.7,46.7,38.5,37.1,30.8,24.5,62,54,44,29.94,29.84,17,3,20,0.00
2013-2-6,55.3,45.2,36.0,33.3,29.0,22.3,85,56,28,30.31,29.92,14,1,16,0.00
2013-2-7,43.2,37.5,32.4,35.8,29.4,24.7,97,73,56,30.39,30.11,11,2,13,0.20
2013-2-8,53.5,41.2,34.1,42.1,34.4,24.0,100,79,50,30.12,29.77,25,5,30,0.32
2013-2-9,49.2,38.1,27.5,24.1,17.8,11.0,74,46,23,30.37,29.98,19,2,22,0.00
2013-2-10,47.6,35.9,21.0,35.3,19.4,13.4,87,54,30,30.50,30.22,12,1,14,0.02
2013-2-11,55.7,47.4,38.2,54.1,45.8,34.4,100,95,67,30.23,29.84,22,4,25,0.04
2013-2-12,58.0,50.5,40.1,42.8,26.8,21.9,67,41,25,30.02,29.86,20,3,23,0.00
2013-2-13,48.2,42.2,33.4,40.6,36.2,27.7,100,81,45,29.92,29.62,14,1,15,0.03
2013-2-14,51.7,40.0,29.1,34.9,30.6,26.8,100,73,41,30.05,29.80,14,1,16,0.01
2013-2-15,60.9,47.1,32.2,38.2,31.5,25.3,90,59,28,30.07,29.89,19,3,20,0.00
2013-2-16,44.2,34.2,27.3,38.1,32.5,25.3,99,94,78,29.98,29.84,11,1,12,0.20
2013-2-17,31.2,24.9,18.3,25.3,11.8,2.0,95,61,30,30.27,29.88,22,2,22,0.00
2013-2-18,47.9,33.3,15.1,22.5,14.5,6.1,79,48,30,30.41,30.20,18,2,18,0.09
2013-2-19,45.2,40.0,36.9,43.1,33.0,20.7,97,77,45,30.20,29.79,24,6,27,0.06
2013-2-20,46.7,37.9,29.4,20.8,13.3,8.1,54,37,21,30.15,29.91,24,4,25,0.00
2013-2-21,47.9,36.6,26.0,21.1,15.9,12.2,66,44,27,30.31,30.12,12,1,14,0.00
2013-2-22,40.2,35.5,30.9,33.1,23.6,17.0,91,62,49,30.36,30.17,9,1,11,0.00
2013-2-23,45.5,38.2,33.7,42.1,37.1,32.6,99,96,87,30.17,29.81,12,0,14,0.05
2013-2-24,59.3,45.0,35.3,43.6,32.0,20.1,100,68,27,30.08,29.80,19,2,19,0.01
2013-2-25,41.6,34.3,27.3,24.6,21.8,18.9,79,61,41,30.23,30.08,15,1,16,0.00
2013-2-26,47.3,36.9,27.6,47.2,33.8,21.3,100,89,71,30.20,29.59,15,2,17,0.80
2013-2-27,56.5,45.9,39.1,44.2,37.8,32.6,100,77,42,29.72,29.57,19,3,23,0.01
2013-2-28,47.0,40.3,33.4,38.0,29.0,23.4,95,66,41,29.80,29.65,25,4,25,0.00
2013-3-1,42.9,37.8,31.5,31.1,27.8,25.8,80,68,55,29.91,29.79,12,1,13,0.00
2013-3-2,38.5,36.1,33.4,28.9,22.6,18.9,77,58,48,29.91,29.83,12,1,13,0.00
2013-3-3,45.1,34.2,24.7,21.6,17.5,13.8,75,52,33,29.95,29.81,20,2,20,0.00
2013-3-4,49.4,34.7,20.6,15.7,11.8,7.0,70,42,19,30.07,29.95,17,2,18,0.00
2013-3-5,48.2,39.0,29.8,38.4,26.5,10.0,97,63,37,30.08,29.67,19,2,21,0.64
2013-3-6,37.6,34.6,32.2,35.7,33.0,29.4,99,94,75,30.02,29.51,26,5,27,0.59
2013-3-7,47.6,39.2,30.6,32.0,27.7,23.2,89,64,45,30.21,30.01,18,2,19,0.06
2013-3-8,51.4,39.5,27.6,28.5,25.2,22.5,83,59,36,30.29,30.15,26,4,30,0.00
2013-3-9,60.4,44.3,28.5,30.9,24.2,17.5,86,50,19,30.35,30.25,14,1,16,0.00
2013-3-10,65.6,48.6,28.7,33.9,24.0,18.7,86,45,17,30.32,30.19,14,2,17,0.00
2013-3-11,65.3,54.2,40.8,51.4,43.2,24.5,92,68,34,30.22,29.90,22,3,22,0.00
2013-3-12,65.5,58.2,44.6,60.0,47.7,30.6,99,71,37,29.94,29.70,18,6,22,0.51
2013-3-13,52.2,41.6,30.7,35.3,25.6,12.4,85,55,31,30.11,29.94,28,4,33,0.00
2013-3-14,50.4,38.9,27.8,19.0,15.5,12.9,60,40,24,30.20,30.06,24,4,26,0.00
2013-3-15,59.6,45.9,29.4,34.7,24.3,14.3,59,43,33,30.14,29.84,20,4,24,0.00
2013-3-16,76.8,56.3,43.6,57.4,44.9,34.4,100,69,33,29.84,29.53,34,3,39,0.32
2013-3-17,53.5,40.9,36.5,53.4,39.3,34.9,100,94,89,30.24,29.82,14,3,17,0.11
2013-3-18,36.5,34.6,33.1,35.7,34.0,32.6,99,98,97,30.26,29.88,15,2,15,0.25
2013-3-19,63.4,46.7,33.4,44.2,27.1,2.2,100,60,12,30.00,29.78,28,5,31,0.00
2013-3-20,54.7,45.2,31.9,18.3,11.1,5.1,42,25,17,30.06,29.75,26,3,26,0.00
2013-3-21,46.8,36.4,28.7,30.1,17.2,5.7,94,49,26,29.95,29.73,18,3,24,0.02
2013-3-22,49.4,34.9,20.8,18.7,13.6,8.4,69,43,25,30.05,29.92,18,3,20,0.00
2013-3-23,57.2,42.2,28.2,28.7,21.6,12.8,77,47,21,30.06,29.89,15,1,17,0.00
2013-3-24,44.1,35.6,32.1,32.3,28.4,22.1,98,77,45,29.97,29.61,15,3,19,0.15
2013-3-25,46.4,36.3,30.7,35.4,30.1,23.8,100,81,45,29.74,29.54,24,3,27,0.46
2013-3-26,47.4,39.2,32.2,30.7,26.8,24.0,79,62,42,30.06,29.74,14,2,16,0.00
2013-3-27,51.6,40.1,29.5,27.6,24.0,17.5,82,55,29,30.20,30.06,28,4,28,0.00
2013-3-28,54.2,42.0,30.1,27.2,23.9,20.1,77,51,29,30.27,30.14,24,2,25,0.00
2013-3-29,59.3,46.4,32.9,30.0,25.7,20.8,74,47,24,30.30,30.14,19,1,21,0.00
2013-3-30,63.1,49.7,33.8,32.9,28.3,24.5,81,47,25,30.24,30.08,14,1,15,0.00
2013-3-31,58.9,51.6,45.2,54.3,45.8,29.5,100,83,42,30.08,29.75,15,2,15,0.26
2013-4-1,69.1,55.9,45.2,52.4,40.2,25.5,96,59,31,29.98,29.77,27,4,34,0.00
2013-4-2,54.2,44.9,32.8,26.9,18.3,9.6,68,36,17,30.16,29.98,23,3,24,0.00
2013-4-3,56.5,43.1,26.6,26.0,16.3,9.2,80,38,16,30.36,30.15,17,2,18,0.00
2013-4-4,47.3,38.4,32.8,35.6,22.0,12.6,99,56,27,30.42,30.02,13,2,14,0.69
2013-4-5,63.9,47.9,35.3,45.2,37.7,31.3,99,73,35,30.02,29.86,14,2,15,0.16
2013-4-6,60.1,50.1,39.8,37.7,25.2,14.6,68,40,19,30.30,30.02,18,2,19,0.00
2013-4-7,73.7,55.3,36.0,41.8,33.4,21.6,77,46,27,30.26,30.03,22,6,26,0.00
2013-4-8,80.7,66.2,53.6,52.6,48.0,41.5,82,54,30,30.11,29.97,20,5,23,0.00
2013-4-9,85.1,73.1,59.6,57.0,52.7,48.1,79,52,29,30.12,29.98,19,5,20,0.00
2013-4-10,89.3,76.6,64.5,59.6,55.9,51.1,75,51,28,30.02,29.85,19,5,23,0.00
2013-4-11,82.8,73.8,65.2,62.0,58.3,54.3,76,59,39,29.90,29.73,25,6,27,0.00
2013-4-12,82.2,72.0,63.7,67.3,58.4,38.3,97,66,28,29.74,29.54,22,5,25,0.58
2013-4-13,72.1,62.3,52.5,42.2,36.4,27.6,54,39,26,29.95,29.70,20,2,22,0.00
2013-4-14,78.5,64.4,47.0,46.1,36.4,29.3,67,37,22,30.09,29.96,14,1,17,0.00
2013-4-15,66.6,59.6,54.4,56.5,54.3,46.3,99,84,50,30.24,30.02,14,2,19,0.24
2013-4-16,74.9,63.8,56.3,61.0,57.4,54.9,98,81,57,30.30,30.15,13,1,15,0.00
2013-4-17,83.8,71.4,59.9,64.1,59.5,55.9,89,68,43,30.19,30.07,12,2,14,0.00
2013-4-18,78.5,70.1,63.1,64.0,60.3,54.3,96,73,45,30.17,29.99,22,3,24,0.00
2013-4-19,79.8,69.3,58.1,66.7,63.3,55.6,96,82,62,29.99,29.63,33,7,33,0.46
2013-4-20,62.4,53.2,44.6,55.6,34.3,25.1,92,52,25,30.28,29.75,15,1,16,0.00
2013-4-21,58.1,49.2,41.2,36.7,31.8,27.3,72,52,37,30.54,30.28,19,2,19,0.00
2013-4-22,59.5,47.5,35.3,42.0,36.3,31.0,92,67,42,30.52,30.32,21,3,21,0.00
2013-4-23,65.8,54.3,45.5,49.0,44.5,40.5,91,71,50,30.34,30.10,13,2,16,0.00
2013-4-24,76.1,63.4,49.8,56.2,52.2,46.9,94,70,42,30.12,29.89,26,5,30,0.00
2013-4-25,66.6,57.7,47.0,56.0,40.6,31.8,83,55,28,30.27,29.94,16,1,16,0.00
2013-4-26,68.1,54.6,37.0,44.7,37.8,30.7,95,58,27,30.45,30.27,14,1,15,0.00
2013-4-27,72.0,61.0,49.6,47.7,42.5,36.0,79,53,28,30.38,30.25,12,1,13,0.00
2013-4-28,59.8,56.5,53.3,53.0,48.0,43.1,90,74,64,30.26,30.10,12,1,14,0.02
2013-4-29,64.8,57.0,52.9,59.0,55.3,49.1,100,95,79,30.10,29.99,6,0,7,0.52
2013-4-30,66.0,58.8,54.4,57.5,55.8,54.1,100,91,73,30.22,30.03,13,2,15,0.00
2013-5-1,69.3,59.6,53.6,56.1,51.2,43.8,100,77,43,30.36,30.21,17,3,19,0.00
2013-5-2,66.8,56.8,51.3,53.5,49.6,42.3,97,78,53,30.38,30.28,12,1,12,0.00
2013-5-3,69.3,55.0,43.2,56.3,46.6,34.7,100,77,37,30.32,30.21,17,2,21,0.00
2013-5-4,60.1,50.7,43.6,51.5,45.8,41.7,94,84,73,30.27,30.13,13,2,14,0.00
2013-5-5,65.0,52.0,41.3,54.0,46.6,38.8,97,83,64,30.17,30.06,18,3,18,0.00
2013-5-6,63.1,57.3,52.5,61.6,56.3,50.2,100,97,82,30.09,29.87,17,3,23,0.94
2013-5-7,70.8,61.8,52.8,63.5,57.9,52.0,100,88,54,29.93,29.83,13,1,15,0.05
2013-5-8,60.1,55.4,51.3,57.5,54.6,51.2,100,97,83,29.99,29.90,6,0,6,0.45
2013-5-9,78.8,64.1,49.2,60.9,55.0,49.1,100,76,41,30.02,29.95,12,1,13,0.01
2013-5-10,83.6,70.6,56.0,62.3,58.9,55.3,99,70,43,30.03,29.88,14,2,16,0.00
2013-5-11,76.3,69.4,61.5,66.6,62.8,58.6,100,80,61,29.91,29.73,19,2,21,0.43
2013-5-12,67.8,61.0,49.8,61.5,45.2,30.4,100,61,27,30.04,29.75,21,2,23,0.01
2013-5-13,62.0,51.5,38.8,41.6,34.1,24.3,89,55,27,30.18,30.03,17,1,21,0.00
2013-5-14,68.6,53.9,35.5,42.5,37.0,29.6,97,59,28,30.24,30.03,15,1,16,0.00
2013-5-15,85.9,70.8,55.7,63.5,54.6,42.4,71,57,44,30.03,29.79,20,4,20,0.00
2013-5-16,85.5,74.3,62.7,64.4,60.7,56.6,88,65,40,29.94,29.82,16,1,20,0.00
2013-5-17,83.2,72.1,63.1,68.0,60.6,56.9,96,70,45,30.09,29.93,14,1,15,0.05
2013-5-18,66.3,63.3,59.0,66.2,62.3,55.9,100,97,71,30.19,30.08,11,1,14,0.23
2013-5-19,74.0,66.2,63.2,69.3,65.1,63.1,100,97,81,30.16,30.06,13,1,16,0.48
2013-5-20,77.6,69.6,63.7,70.7,67.7,63.1,100,94,72,30.09,29.99,9,1,9,0.10
2013-5-21,83.4,73.2,66.6,72.0,69.1,66.5,100,88,66,30.01,29.89,11,1,13,0.00
2013-5-22,83.4,75.5,68.3,72.0,69.0,64.8,97,82,64,29.97,29.84,18,3,19,0.00
2013-5-23,78.5,70.5,62.6,69.6,66.6,60.9,100,88,69,29.92,29.75,15,1,15,0.35
2013-5-24,67.4,60.9,47.3,61.2,50.6,37.0,100,72,39,30.16,29.76,21,2,23,0.00
2013-5-25,69.6,53.2,37.2,46.9,39.1,31.2,97,63,30,30.26,30.11,13,0,14,0.00
2013-5-26,73.3,58.3,42.2,49.3,41.7,33.3,93,59,25,30.26,30.14,11,0,11,0.00
2013-5-27,74.7,61.7,45.4,60.0,52.4,44.3,98,74,49,30.28,30.15,10,0,11,0.00
2013-5-28,84.3,71.5,55.4,67.6,62.4,54.5,97,75,50,30.19,30.08,18,3,19,0.00
2013-5-29,85.7,76.3,67.1,68.5,64.8,63.2,89,69,49,30.17,30.10,18,3,20,0.00
2013-5-30,86.1,75.8,65.2,68.8,65.4,62.8,94,72,49,30.22,30.13,14,2,17,0.00
2013-5-31,86.3,75.8,63.7,70.0,64.8,61.9,95,71,47,30.18,30.06,17,2,17,0.00
2013-6-1,88.0,78.2,68.6,71.4,66.1,62.1,93,68,44,30.07,29.95,17,3,21,0.00
2013-6-2,83.6,73.3,67.1,70.4,67.2,63.5,100,82,60,29.97,29.87,17,3,20,0.99
2013-6-3,81.8,71.8,65.8,71.5,68.8,65.5,100,92,61,29.94,29.80,11,1,13,0.17
2013-6-4,76.3,67.9,60.1,65.5,59.0,53.0,100,76,47,30.11,29.93,13,1,15,0.01
2013-6-5,78.8,68.6,54.7,63.4,58.0,49.9,97,71,52,30.15,30.02,10,1,10,0.00
2013-6-6,75.6,68.1,60.9,70.5,63.6,55.5,99,86,68,30.04,29.79,17,2,19,0.12
2013-6-7,70.6,68.4,67.1,70.3,68.3,67.0,100,100,99,29.81,29.56,16,2,21,0.91
2013-6-8,80.3,70.8,65.2,68.5,65.7,61.4,100,86,55,30.07,29.76,7,0,9,0.11
2013-6-9,86.5,75.3,63.7,72.4,68.2,63.1,100,81,57,30.15,30.03,18,1,21,0.13
2013-6-10,82.6,73.3,68.9,73.6,70.9,65.2,100,93,71,30.08,29.81,21,3,24,0.55
2013-6-11,82.6,74.2,68.3,69.3,67.0,63.6,100,80,55,29.90,29.82,16,2,17,0.04
2013-6-12,88.0,78.3,66.6,75.4,69.3,63.6,92,75,55,29.92,29.80,16,1,16,0.00
2013-6-13,90.5,77.2,66.3,74.6,71.6,63.3,98,85,53,29.81,29.52,24,2,37,0.19
2013-6-14,77.2,67.8,57.8,63.8,58.3,53.7,97,74,46,29.99,29.66,16,1,19,0.00
2013-6-15,82.0,70.5,57.0,63.3,59.1,54.5,99,71,41,30.09,29.99,11,0,12,0.00
2013-6-16,84.7,75.8,65.8,73.3,66.4,61.2,88,74,57,30.04,29.93,15,2,16,0.00
2013-6-17,84.0,73.0,67.6,73.7,69.2,65.5,100,89,63,29.99,29.87,19,1,24,1.27
2013-6-18,77.6,70.5,65.8,73.8,69.7,65.7,100,98,83,29.94,29.76,13,1,17,0.10
2013-6-19,76.5,68.4,61.8,68.1,65.2,61.7,100,90,70,30.12,29.86,10,0,10,0.00
2013-6-20,79.6,70.4,63.1,66.1,61.7,53.9,100,76,53,30.25,30.12,11,1,12,0.00
2013-6-21,81.2,69.6,56.7,65.7,58.3,51.3,96,70,37,30.29,30.20,12,1,12,0.00
2013-6-22,81.4,70.9,62.7,74.5,67.7,61.8,100,91,67,30.25,30.13,12,1,12,0.13
2013-6-23,85.5,75.5,68.8,73.5,70.7,68.7,100,87,59,30.19,30.08,10,0,13,0.47
2013-6-24,87.2,78.5,69.9,74.6,72.0,69.4,99,82,60,30.15,30.03,13,1,14,0.00
2013-6-25,89.3,78.7,70.1,74.7,72.0,69.7,99,82,56,30.06,29.93,12,1,14,0.01
2013-6-26,89.3,76.5,68.1,75.3,71.2,68.0,100,85,60,29.95,29.82,15,2,26,0.90
2013-6-27,83.0,74.0,67.4,75.6,70.5,67.2,100,90,67,29.87,29.66,17,2,22,0.03
2013-6-28,88.0,77.3,70.4,75.6,71.6,68.5,99,84,64,29.69,29.50,19,2,19,0.01
2013-6-29,85.9,77.1,67.8,72.8,68.5,65.3,96,76,52,29.69,29.54,17,2,19,0.00
2013-6-30,84.9,75.3,71.3,75.7,72.3,67.8,100,91,71,29.85,29.68,16,1,21,0.03
2013-7-1,82.6,74.7,70.3,73.6,71.5,70.0,100,91,70,29.96,29.82,13,1,15,0.65
2013-7-2,76.8,74.2,72.5,74.0,72.3,71.1,99,94,86,30.18,29.96,18,2,20,0.04
2013-7-3,82.2,75.0,71.8,76.3,73.3,71.5,100,95,75,30.23,30.13,11,1,12,0.85
2013-7-4,87.6,78.9,72.5,74.6,72.6,70.7,100,83,61,30.26,30.16,15,2,16,0.00
2013-7-5,86.7,78.8,70.6,75.3,72.4,70.1,99,82,63,30.25,30.13,14,1,14,0.00
2013-7-6,86.1,79.0,72.1,74.1,72.6,69.6,100,82,60,30.22,30.10,11,1,14,0.00
2013-7-7,86.3,78.4,71.6,75.5,73.0,71.2,99,85,64,30.14,30.02,17,2,18,0.00
2013-7-8,84.9,76.3,70.3,73.3,71.6,68.7,100,87,60,30.14,30.06,11,1,12,0.04
2013-7-9,86.5,78.2,73.0,77.4,73.8,71.1,100,87,67,30.11,30.02,11,1,11,0.00
2013-7-10,87.2,77.7,71.5,77.4,73.8,70.8,100,89,70,30.05,29.90,11,1,13,1.16
2013-7-11,81.4,74.7,70.3,74.8,72.8,69.7,100,94,77,29.94,29.86,14,1,16,1.59
2013-7-12,70.9,69.0,66.3,70.8,68.3,66.2,100,98,93,30.03,29.84,13,1,14,0.51
2013-7-13,82.2,73.7,67.3,76.0,70.9,67.2,100,92,75,30.21,30.02,11,1,14,0.01
2013-7-14,87.2,77.7,69.3,75.4,72.3,69.2,100,85,57,30.32,30.21,8,0,10,0.00
2013-7-15,89.3,79.3,70.3,76.0,73.0,68.9,100,83,52,30.32,30.21,7,0,7,0.00
2013-7-16,91.8,81.2,71.6,79.9,74.2,70.9,99,81,53,30.24,30.15,14,0,16,0.01
2013-7-17,90.7,80.7,72.7,78.8,74.8,70.0,100,84,54,30.21,30.08,11,0,11,0.00
2013-7-18,92.3,82.2,72.1,79.7,74.9,69.9,100,81,51,30.12,30.01,4,0,5,0.00
2013-7-19,90.3,82.6,74.4,78.4,75.8,73.9,100,81,63,30.04,29.91,14,2,16,0.00
2013-7-20,88.6,80.6,75.4,77.8,74.7,72.4,93,83,68,29.95,29.85,16,3,18,0.00
2013-7-21,89.0,77.2,71.6,79.0,73.8,71.5,100,90,66,29.94,29.86,18,1,24,0.03
2013-7-22,85.5,76.7,69.9,76.8,73.1,69.8,100,90,72,29.93,29.77,15,1,15,0.00
2013-7-23,88.0,79.4,72.3,74.7,72.6,70.4,99,81,57,29.78,29.66,11,1,12,0.00
2013-7-24,86.7,76.3,68.4,75.4,71.2,67.0,99,85,59,29.87,29.68,13,1,16,0.20
2013-7-25,77.6,70.2,64.5,67.4,63.8,59.4,100,82,58,30.03,29.85,14,1,15,0.01
2013-7-26,80.9,71.2,59.5,68.3,63.6,59.4,100,79,54,30.10,30.01,9,0,9,0.00
2013-7-27,81.2,73.1,67.1,72.8,68.8,64.8,100,87,68,30.04,29.91,14,1,14,0.00
2013-7-28,84.1,74.3,68.6,74.2,70.0,66.9,100,88,66,29.98,29.88,13,1,15,0.00
2013-7-29,82.0,72.4,65.3,69.3,66.6,61.6,100,84,53,30.15,29.96,10,0,11,0.00
2013-7-30,82.8,70.9,58.6,69.8,64.6,58.5,100,83,51,30.22,30.13,10,0,10,0.00
2013-7-31,81.1,71.5,64.7,72.6,68.4,64.6,100,91,70,30.14,30.00,7,0,12,0.46
2013-8-1,83.8,73.4,66.9,73.9,70.5,66.8,100,92,68,30.00,29.81,14,1,18,0.72
2013-8-2,84.3,74.2,65.0,69.8,66.5,59.8,100,80,47,30.00,29.87,10,0,16,0.01
2013-8-3,84.9,74.9,67.3,74.7,68.9,65.1,100,83,54,29.98,29.89,7,0,11,0.00
2013-8-4,81.2,74.1,66.4,70.3,64.8,57.3,97,75,47,30.03,29.89,16,1,16,0.00
2013-8-5,78.5,69.7,59.5,66.0,62.0,56.8,98,78,52,30.11,29.99,9,0,9,0.00
2013-8-6,81.1,72.9,67.9,72.2,67.7,64.0,95,84,68,30.03,29.95,13,1,14,0.00
2013-8-7,84.0,75.6,69.3,73.1,69.7,66.8,95,83,64,30.07,30.00,14,1,17,0.00
2013-8-8,85.9,77.9,72.5,74.4,71.7,70.0,94,82,62,30.04,29.96,13,1,15,0.00
2013-8-9,88.6,80.5,74.6,78.7,74.1,71.2,92,82,66,29.98,29.90,15,3,18,0.00
2013-8-10,88.2,78.1,72.8,76.4,73.8,71.7,100,88,63,30.07,29.96,12,1,14,0.05
2013-8-11,83.4,75.7,71.1,76.6,73.0,70.4,100,92,74,30.10,29.99,8,0,9,0.00
2013-8-12,88.0,78.1,68.9,75.6,71.7,68.3,100,83,54,30.03,29.91,7,0,8,0.00
2013-8-13,84.9,75.8,70.8,75.1,72.9,70.7,100,92,66,29.92,29.74,11,1,13,0.02
2013-8-14,73.7,68.7,60.1,72.8,60.3,50.3,100,77,48,30.11,29.78,17,1,17,0.00
2013-8-15,75.4,63.8,54.2,62.0,57.0,51.8,99,81,46,30.18,30.08,10,0,10,0.00
2013-8-16,73.5,63.5,53.9,64.5,58.9,53.8,100,87,58,30.19,30.11,7,0,10,0.00
2013-8-17,74.2,66.0,57.3,68.8,62.8,57.2,100,90,71,30.22,30.16,13,1,15,0.02
2013-8-18,66.6,64.9,63.7,66.5,64.8,63.6,100,100,98,30.22,30.12,12,1,13,0.63
2013-8-19,73.2,67.1,63.7,70.0,66.3,63.6,100,97,89,30.20,30.07,9,0,10,0.19
2013-8-20,83.6,71.9,65.3,72.9,68.9,65.2,100,91,66,30.18,30.09,6,0,7,0.00
2013-8-21,84.7,75.5,67.9,77.1,72.4,67.5,100,91,73,30.20,30.07,10,0,11,0.00
2013-8-22,86.5,78.1,70.9,74.4,71.0,64.9,100,81,52,30.10,29.96,9,0,10,0.00
2013-8-23,82.6,70.8,63.5,73.1,68.3,62.3,100,93,66,30.11,29.92,15,1,19,0.72
2013-8-24,81.1,68.7,57.6,66.6,61.6,57.5,100,81,48,30.30,30.11,14,1,16,0.01
2013-8-25,79.2,68.2,59.0,67.2,61.4,56.0,100,81,48,30.40,30.28,7,0,9,0.00
2013-8-26,82.0,69.2,56.0,66.7,60.9,55.1,99,77,48,30.31,30.05,10,0,10,0.00
2013-8-27,87.6,75.2,63.5,76.3,68.7,60.7,98,82,57,30.06,29.91,10,1,11,0.00
2013-8-28,77.2,74.1,70.3,75.1,72.3,69.0,99,94,84,29.97,29.80,13,1,15,0.02
2013-8-29,82.4,75.1,69.9,74.5,72.3,69.8,100,92,71,30.01,29.79,14,1,17,0.01
2013-8-30,84.7,74.3,65.3,72.2,68.9,65.2,100,85,59,30.05,29.91,9,0,10,0.00
2013-8-31,87.0,75.9,68.3,75.7,70.4,66.2,100,84,65,29.93,29.81,15,1,15,0.00
2013-9-1,88.4,76.1,67.3,78.0,71.5,67.0,100,87,62,29.86,29.75,14,1,18,0.45
2013-9-2,87.4,77.9,70.4,75.2,72.1,69.4,100,84,58,29.83,29.74,11,1,12,0.08
2013-9-3,85.3,77.3,70.4,73.8,71.7,68.1,100,85,59,29.92,29.74,15,0,16,0.00
2013-9-4,80.5,71.1,64.5,72.6,63.5,58.8,99,78,56,30.09,29.91,13,1,15,0.00
2013-9-5,85.9,72.0,60.9,67.7,63.6,58.6,100,78,42,30.09,30.00,9,0,11,0.00
2013-9-6,79.8,68.5,60.1,63.0,58.0,52.9,91,71,45,30.21,30.09,11,1,14,0.00
2013-9-7,79.6,66.2,53.6,65.3,60.0,53.0,100,82,56,30.12,29.94,14,1,14,0.00
2013-9-8,86.1,72.3,59.6,71.2,64.5,59.0,100,79,49,29.98,29.88,6,0,6,0.00
2013-9-9,80.1,72.9,68.6,70.7,67.7,61.4,99,85,67,30.16,29.97,13,1,13,0.00
2013-9-10,88.8,75.9,64.5,74.8,69.9,64.4,100,84,57,30.20,30.10,10,1,13,0.00
2013-9-11,91.0,79.1,69.6,73.8,69.8,67.1,94,75,48,30.16,30.01,12,1,14,0.00
2013-9-12,89.0,77.7,68.9,74.4,70.5,67.3,98,80,58,30.01,29.75,11,1,13,0.00
2013-9-13,80.1,71.6,62.7,69.0,61.5,53.4,93,72,48,29.91,29.71,11,1,15,0.00
2013-9-14,71.3,61.2,53.5,53.8,50.4,44.6,91,70,44,30.15,29.91,13,1,15,0.00
2013-9-15,77.9,61.9,45.4,60.6,53.4,45.3,100,77,46,30.25,30.10,13,0,13,0.00
2013-9-16,77.9,66.6,59.9,67.0,61.9,58.4,96,86,62,30.11,30.08,12,1,12,0.00
2013-9-17,70.9,62.5,51.6,56.7,53.1,49.3,93,73,53,30.37,30.28,14,1,14,0.00
2013-9-18,70.8,59.1,44.8,53.2,47.5,38.3,100,71,35,30.31,30.18,7,0,8,0.00
2013-9-19,70.8,61.6,52.8,60.3,55.9,51.2,98,83,59,30.19,30.07,7,0,10,0.00
2013-9-20,77.0,66.6,57.5,67.2,62.6,57.2,100,88,66,30.08,29.95,8,0,11,0.00
2013-9-21,71.3,66.6,62.0,69.2,65.3,61.9,100,96,88,29.95,29.69,16,2,21,0.55
2013-9-22,75.3,65.0,57.8,64.6,59.6,54.1,100,85,51,29.92,29.71,13,1,14,0.01
2013-9-23,68.8,59.3,52.0,56.1,51.6,47.8,96,77,53,30.08,29.91,11,1,12,0.00
2013-9-24,73.5,61.2,50.7,59.6,54.4,49.2,100,81,54,30.11,29.94,6,0,7,0.00
2013-9-25,72.0,60.8,50.8,60.7,56.3,50.6,100,87,54,29.96,29.87,10,0,10,0.01
2013-9-26,75.6,63.3,55.4,61.3,57.2,53.0,100,83,50,30.05,29.89,12,1,13,0.02
2013-9-27,73.5,59.7,49.4,61.0,55.3,49.3,100,87,56,30.21,30.05,12,1,15,0.00
2013-9-28,67.6,59.7,52.5,58.0,55.7,52.2,100,88,66,30.28,30.19,11,1,12,0.00
2013-9-29,72.8,60.7,50.2,58.5,54.3,50.1,100,82,48,30.19,30.04,12,0,12,0.00
2013-9-30,75.1,60.9,48.0,60.1,54.7,47.9,100,83,53,30.10,29.98,7,0,7,0.00
2013-10-1,81.6,66.4,55.0,64.3,58.6,54.0,98,79,44,30.09,29.99,7,0,7,0.00
2013-10-2,83.4,68.7,56.5,64.5,60.5,56.1,100,78,44,30.11,30.01,5,0,7,0.00
2013-10-3,84.0,69.0,57.3,68.2,62.6,57.2,100,83,49,30.11,30.03,10,0,11,0.00
2013-10-4,87.0,72.2,62.1,68.0,64.2,61.5,99,79,45,30.10,30.01,7,0,9,0.00
2013-10-5,88.6,73.9,61.0,69.6,65.2,60.9,100,78,44,30.09,29.99,7,0,8,0.00
2013-10-6,85.5,74.9,64.8,69.3,65.7,60.5,95,75,44,30.03,29.90,15,2,18,0.00
2013-10-7,73.5,68.1,59.2,71.6,65.9,55.8,99,93,86,30.02,29.79,22,2,23,0.53
2013-10-8,62.7,56.3,51.4,57.1,50.4,46.4,96,81,58,30.24,30.02,16,2,19,0.00
2013-10-9,57.2,54.7,52.5,55.0,51.6,48.4,100,90,79,30.24,30.13,19,4,20,0.23
2013-10-10,59.0,55.2,51.9,58.8,55.0,51.8,100,100,99,30.13,29.94,20,4,22,0.47
2013-10-11,64.5,60.0,57.0,62.0,59.3,56.9,100,98,88,29.97,29.90,14,2,14,0.08
2013-10-12,64.8,61.8,59.8,64.7,61.7,59.7,100,100,99,30.11,29.94,14,2,17,0.13
2013-10-13,63.4,60.3,58.9,63.3,60.2,58.8,100,100,99,30.26,30.10,13,3,18,0.13
2013-10-14,62.7,58.6,53.8,60.3,57.6,53.5,100,97,85,30.29,30.20,12,2,14,0.01
2013-10-15,71.3,59.0,48.3,59.9,54.0,48.2,100,86,48,30.21,30.07,11,1,12,0.00
2013-10-16,71.5,64.2,59.9,63.2,61.2,58.8,100,91,69,30.07,29.92,6,0,7,0.00
2013-10-17,70.6,65.1,60.7,64.4,62.4,60.1,99,92,76,29.93,29.76,13,2,16,0.00
2013-10-18,67.6,57.7,47.3,62.8,49.5,43.8,99,77,45,30.04,29.84,9,0,11,0.00
2013-10-19,59.9,54.5,47.7,59.8,54.2,47.6,100,99,94,29.98,29.81,10,0,12,0.00
2013-10-20,62.7,51.5,41.8,54.9,41.9,33.2,100,73,36,30.11,29.88,9,0,10,0.00
2013-10-21,66.0,51.3,35.8,49.6,42.6,35.8,100,75,44,30.17,29.98,11,1,13,0.00
2013-10-22,72.3,58.6,51.9,53.4,49.8,45.5,92,75,42,29.98,29.79,18,1,18,0.00
2013-10-23,58.9,50.3,42.9,50.9,44.4,35.5,100,81,55,29.95,29.68,14,1,17,0.06
2013-10-24,52.2,42.5,34.1,36.3,33.3,30.5,94,72,46,30.18,29.95,15,1,19,0.00
2013-10-25,55.0,41.6,31.2,34.0,30.0,22.0,95,68,30,30.35,30.18,10,0,12,0.00
2013-10-26,57.0,42.9,27.9,34.1,29.6,26.4,95,64,34,30.34,30.01,20,2,23,0.00
2013-10-27,63.9,51.7,39.1,43.2,38.5,33.8,91,63,38,30.12,30.01,15,1,17,0.00
2013-10-28,68.8,51.7,35.2,51.7,43.1,34.9,100,76,41,30.25,30.11,9,0,9,0.00
2013-10-29,68.1,57.5,50.5,53.0,50.1,47.4,97,78,51,30.36,30.24,7,0,9,0.00
2013-10-30,68.4,58.9,52.2,60.7,54.6,45.9,100,86,72,30.29,30.13,12,0,14,0.01
2013-10-31,71.8,64.7,56.3,60.5,57.9,55.5,99,80,65,30.17,29.81,18,4,25,0.00
2013-11-1,70.9,67.3,61.5,66.2,63.5,60.1,100,88,74,29.82,29.62,28,6,30,0.02
2013-11-2,69.3,59.2,46.4,60.4,46.9,35.6,100,69,31,29.91,29.64,18,1,19,0.00
2013-11-3,60.9,48.3,36.5,40.8,35.4,28.8,89,64,32,30.40,29.91,14,1,20,0.00
2013-11-4,51.7,41.0,33.4,33.5,28.9,26.5,86,63,40,30.60,30.40,13,1,13,0.00
2013-11-5,54.5,44.9,35.9,41.7,35.6,29.0,79,70,59,30.60,30.46,9,0,10,0.00
2013-11-6,70.3,56.5,47.7,53.9,49.1,41.4,95,77,54,30.47,30.10,11,1,11,0.00
2013-11-7,67.1,56.6,41.9,57.5,48.1,31.3,100,75,49,30.10,29.89,16,2,19,0.00
2013-11-8,55.6,42.7,31.3,31.5,26.8,21.5,80,56,28,30.33,30.08,16,1,18,0.00
2013-11-9,57.2,42.6,27.0,30.9,27.7,24.5,92,60,32,30.38,30.11,17,2,20,0.00
2013-11-10,68.9,53.1,40.9,39.0,29.3,18.3,66,44,18,30.26,30.01,24,3,27,0.00
2013-11-11,59.0,46.2,30.1,30.6,28.2,24.9,84,52,29,30.34,30.08,15,2,16,0.00
2013-11-12,50.7,41.9,28.8,36.2,25.0,14.1,65,51,39,30.42,29.98,24,4,30,0.00
2013-11-13,45.7,32.8,21.6,18.8,15.4,12.9,79,51,27,30.54,30.42,17,1,18,0.00
2013-11-14,61.6,42.8,27.5,22.8,17.0,11.5,66,40,14,30.42,30.28,16,3,17,0.00
2013-11-15,60.4,49.0,35.3,47.6,31.1,21.6,91,52,27,30.32,30.20,13,2,18,0.01
2013-11-16,56.9,53.1,49.4,55.3,52.4,47.5,100,98,91,30.29,30.21,5,0,5,0.21
2013-11-17,67.6,59.9,54.2,63.3,57.3,54.1,100,92,75,30.22,29.79,19,2,20,0.00
2013-11-18,68.6,62.2,51.1,65.0,42.5,22.7,95,54,25,29.95,29.73,22,4,24,0.01
2013-11-19,53.2,44.9,34.9,29.8,26.8,22.7,72,50,33,30.37,29.95,17,2,19,0.00
2013-11-20,48.8,40.5,34.6,33.2,27.5,25.0,86,61,41,30.51,30.35,16,2,16,0.00
2013-11-21,54.7,44.6,36.3,42.8,38.1,32.5,87,78,62,30.54,30.39,11,1,12,0.00
2013-11-22,70.4,57.5,45.4,57.8,50.7,41.0,92,79,63,30.40,30.02,27,4,27,0.00
2013-11-23,59.9,52.0,37.8,57.2,35.6,12.3,92,58,21,30.16,30.01,20,2,21,0.00
2013-11-24,37.8,29.5,20.0,17.0,4.7,-3.1,62,35,21,30.55,30.16,23,3,28,0.00
2013-11-25,38.8,28.2,16.9,16.7,9.7,6.5,73,48,27,30.59,30.36,12,1,13,0.00
2013-11-26,44.2,36.7,31.9,44.1,31.1,10.7,100,83,35,30.39,29.59,17,1,21,1.61
2013-11-27,43.1,37.9,28.8,43.0,34.7,15.5,100,90,54,30.12,29.51,20,2,24,0.73
2013-11-28,40.5,30.7,21.3,22.1,17.2,12.6,80,58,38,30.48,30.12,16,1,19,0.00
2013-11-29,46.0,33.9,25.4,26.1,22.0,19.4,82,63,41,30.69,30.45,11,1,14,0.00
2013-11-30,41.5,31.5,25.0,27.4,23.4,19.8,92,73,52,30.70,30.38,10,1,11,0.00
2013-12-1,55.1,37.1,22.2,31.2,25.9,20.2,94,68,30,30.38,30.02,15,1,15,0.00
2013-12-2,58.7,42.6,28.1,39.4,32.1,25.0,90,69,39,30.02,29.84,7,0,7,0.00
2013-12-3,58.6,46.5,33.7,44.5,39.1,32.4,96,77,53,30.00,29.87,11,1,13,0.00
2013-12-4,60.2,53.3,46.5,54.8,50.2,44.2,98,90,78,30.08,29.98,11,1,11,0.00
2013-12-5,64.8,60.9,55.7,63.5,60.0,54.8,100,97,94,30.09,29.96,16,4,18,0.06
2013-12-6,74.7,61.8,42.2,64.7,58.1,40.8,98,89,63,30.12,29.89,24,7,25,0.02
2013-12-7,44.1,40.3,35.9,41.4,36.1,27.7,99,85,72,30.51,30.05,15,4,20,0.31
2013-12-8,35.9,31.0,29.1,30.5,28.0,23.3,99,89,70,30.54,30.30,15,2,17,0.21
2013-12-9,38.3,34.8,30.1,38.3,34.7,29.8,100,100,99,30.31,30.05,11,2,12,0.35
2013-12-10,44.8,36.2,30.3,40.4,32.1,21.0,100,87,53,30.28,29.98,20,2,22,0.29
2013-12-11,45.1,33.7,23.3,24.8,21.9,19.2,85,63,39,30.43,30.26,12,2,14,0.00
2013-12-12,40.1,32.3,26.4,23.3,14.1,3.7,79,49,24,30.42,30.26,22,2,22,0.00
2013-12-13,48.2,35.9,24.2,25.1,16.0,9.5,61,45,28,30.36,30.25,17,2,17,0.00
2013-12-14,39.8,36.4,34.3,35.3,31.0,21.9,100,82,49,30.30,29.76,10,1,13,0.52
2013-12-15,51.3,40.1,32.5,41.4,32.7,25.4,100,78,45,30.02,29.67,19,3,21,0.01
2013-12-16,45.8,37.3,30.0,32.6,29.2,25.7,88,73,55,30.16,29.99,12,1,14,0.00
2013-12-17,54.1,38.8,27.6,41.4,33.5,26.3,98,83,50,30.11,29.89,17,1,19,0.36
2013-12-18,43.5,36.1,28.4,36.0,24.1,19.9,97,63,40,30.25,30.00,19,2,20,0.00
2013-12-19,61.8,47.0,32.8,27.2,23.3,19.5,63,41,24,30.25,30.16,18,5,21,0.00
2013-12-20,64.3,54.2,44.9,49.1,39.4,26.2,74,58,39,30.19,30.05,22,7,31,0.00
2013-12-21,70.4,61.5,52.9,64.0,55.2,48.0,92,80,65,30.10,29.96,25,7,26,0.00
2013-12-22,72.5,65.4,60.4,66.9,62.9,59.6,99,92,81,30.04,29.91,27,7,34,0.87
2013-12-23,64.3,58.1,42.8,63.9,56.8,37.1,100,96,74,30.17,29.93,19,4,22,0.34
2013-12-24,42.8,35.4,25.8,37.1,23.6,7.3,96,64,40,30.47,30.16,20,2,24,0.00
2013-12-25,34.4,26.0,19.4,17.3,11.7,7.3,76,56,33,30.58,30.39,9,1,10,0.00
2013-12-26,51.0,34.0,19.7,25.7,19.9,14.4,87,58,35,30.39,30.24,15,2,18,0.00
2013-12-27,50.7,37.6,24.7,24.0,19.9,16.6,82,51,27,30.47,30.36,12,1,13,0.00
2013-12-28,57.5,43.8,30.3,40.0,24.3,20.3,90,48,27,30.38,30.16,14,2,15,0.02
2013-12-29,52.6,44.9,40.8,48.7,42.4,37.9,100,92,75,30.17,29.63,18,2,20,0.99
2013-12-30,51.0,42.4,36.8,41.2,36.5,31.4,95,80,59,30.15,29.87,10,1,12,0.00
2013-12-31,49.6,38.8,28.8,33.9,25.2,17.2,99,63,30,30.34,30.13,23,2,28,0.00
2014-1-1,47.4,35.9,27.2,25.7,22.1,17.1,84,58,36,30.40,30.12,12,1,14,0.00
2014-1-2,42.6,35.8,28.7,38.2,31.6,24.2,100,85,70,30.12,29.60,8,0,8,0.35